Ribeira do Pombal, Brazil
Current Conditions -  °F | °C
As of 9:00 AM on Wednesday 22 Oct 2014 (Local Time) from SBUF Reporting Station
Broken Clouds Broken Clouds  
Wind Chill: 84°   Ceiling: 1800
Heat Index: 86°   Visibility: 6mi
Dew Point: 64°   Wind: 8mph
Humidity: 51%   Direction: 90°E
Pressure: 30.06"   Gusts: NA
Location:  10.83°S, 38.54°W
Report Text: SBUF 221200Z 09007KT 9999 BKN018 29/18 Q1018
Loading
Personal Weather Stations






























Interactive Weather Map
Tropical Storm Tracking
New forecast layout! Learn more

10-Day Weather Forecast

Advertisements
Track Severe Weather on mobile